createdAt,value
2022-08-12T00:01:12.038Z,63.26
2022-08-12T00:04:00.231Z,63.38
2022-08-12T00:06:51.852Z,63.41
2022-08-12T00:09:42.517Z,63.50
2022-08-12T00:12:30.578Z,63.72
2022-08-12T00:15:18.308Z,63.79
2022-08-12T00:18:16.390Z,63.88
2022-08-12T00:21:04.565Z,64.10
2022-08-12T00:23:55.690Z,64.08
2022-08-12T00:26:47.612Z,64.32
2022-08-12T00:29:37.827Z,64.32
2022-08-12T00:32:35.540Z,64.33
2022-08-12T00:35:36.435Z,64.58
2022-08-12T00:38:24.985Z,64.65
2022-08-12T00:41:13.016Z,64.90
2022-08-12T00:43:44.058Z,65.04
2022-08-12T00:46:32.876Z,65.26
2022-08-12T00:49:02.728Z,65.32
2022-08-12T00:51:51.770Z,65.24
2022-08-12T00:54:22.371Z,65.26
2022-08-12T00:56:54.697Z,65.41
2022-08-12T00:59:24.606Z,65.47
2022-08-12T01:02:00.974Z,65.80
2022-08-12T01:05:02.639Z,65.71
2022-08-12T01:07:54.042Z,65.57
2022-08-12T01:10:44.474Z,65.51
2022-08-12T01:13:20.595Z,65.53
2022-08-12T01:15:59.430Z,65.43
2022-08-12T01:18:35.625Z,65.34
2022-08-12T01:21:36.603Z,65.30
2022-08-12T01:24:52.167Z,65.46
2022-08-12T01:27:24.018Z,65.45
2022-08-12T01:29:57.053Z,65.44
2022-08-12T01:32:29.574Z,65.33
2022-08-12T01:35:08.749Z,65.36
2022-08-12T01:37:56.519Z,65.37
2022-08-12T01:40:37.234Z,65.31
2022-08-12T01:43:16.311Z,65.36
2022-08-12T01:46:30.859Z,65.23
2022-08-12T01:49:13.974Z,65.10
2022-08-12T01:52:15.217Z,64.99
2022-08-12T01:54:45.704Z,64.92
2022-08-12T01:57:57.680Z,64.75
2022-08-12T02:00:43.259Z,64.84
2022-08-12T02:03:54.746Z,64.80
2022-08-12T02:07:06.175Z,64.78
2022-08-12T02:10:51.314Z,64.90
2022-08-12T02:14:02.861Z,65.01
2022-08-12T02:17:06.526Z,64.94
2022-08-12T02:20:35.139Z,64.69
2022-08-12T02:23:19.560Z,64.40
2022-08-12T02:25:52.288Z,64.53
2022-08-12T02:28:24.528Z,64.41
2022-08-12T02:30:55.809Z,64.39
2022-08-12T02:33:25.891Z,64.32
2022-08-12T02:35:55.691Z,64.16
2022-08-12T02:38:30.358Z,64.04
2022-08-12T02:41:04.770Z,64.15
2022-08-12T02:43:53.551Z,64.37
2022-08-12T02:46:33.558Z,64.46
2022-08-12T02:49:32.948Z,64.52
2022-08-12T02:52:09.492Z,64.48
2022-08-12T02:54:42.094Z,64.80
2022-08-12T02:57:14.393Z,65.02
2022-08-12T02:59:49.117Z,65.18
2022-08-12T03:02:25.302Z,65.43
2022-08-12T03:04:57.389Z,65.85
2022-08-12T03:07:59.350Z,66.21
2022-08-12T03:10:37.745Z,66.96
2022-08-12T03:13:08.780Z,67.40
2022-08-12T03:15:39.121Z,67.93
2022-08-12T03:18:24.668Z,68.48
2022-08-12T03:21:01.135Z,68.98
2022-08-12T03:23:34.393Z,69.48
2022-08-12T03:26:06.442Z,69.93
2022-08-12T03:28:52.013Z,70.19
2022-08-12T03:31:34.102Z,70.43
2022-08-12T03:34:08.853Z,70.76
2022-08-12T03:36:43.848Z,71.12
2022-08-12T03:39:36.727Z,71.46
2022-08-12T03:42:14.951Z,71.66
2022-08-12T03:45:28.162Z,71.92
2022-08-12T03:48:33.090Z,72.03
2022-08-12T03:51:21.921Z,72.09
2022-08-12T03:54:11.482Z,72.22
2022-08-12T03:56:59.823Z,72.39
2022-08-12T03:59:48.525Z,72.34
2022-08-12T04:02:19.490Z,72.41
2022-08-12T04:04:57.091Z,72.45
2022-08-12T04:07:34.092Z,72.47
2022-08-12T04:10:19.512Z,72.70
2022-08-12T04:13:22.247Z,73.01
2022-08-12T04:15:58.715Z,73.16
2022-08-12T04:18:29.718Z,73.33
2022-08-12T04:20:59.238Z,73.41
2022-08-12T04:23:35.225Z,73.32
2022-08-12T04:26:11.179Z,73.56
2022-08-12T04:28:52.474Z,73.65
2022-08-12T04:31:36.862Z,73.76
2022-08-12T04:34:19.970Z,73.90
2022-08-12T04:37:00.160Z,73.75
2022-08-12T04:39:47.408Z,73.66
2022-08-12T04:42:26.470Z,73.62
2022-08-12T04:45:05.138Z,73.15
2022-08-12T04:47:41.130Z,72.79
2022-08-12T04:50:44.769Z,72.55
2022-08-12T04:53:33.281Z,72.55
2022-08-12T04:56:35.444Z,72.46
2022-08-12T04:59:30.148Z,72.37
2022-08-12T05:02:16.776Z,72.35
2022-08-12T05:05:22.994Z,72.51
2022-08-12T05:08:10.714Z,72.53
2022-08-12T05:10:48.112Z,72.47
2022-08-12T05:13:27.465Z,72.38
2022-08-12T05:16:04.938Z,72.25
2022-08-12T05:18:40.359Z,71.99
2022-08-12T05:21:20.395Z,71.72
2022-08-12T05:23:52.007Z,71.48
2022-08-12T05:26:23.985Z,71.52
2022-08-12T05:29:05.962Z,72.05
2022-08-12T05:31:57.205Z,72.24
2022-08-12T05:34:31.962Z,72.25
2022-08-12T05:37:05.288Z,72.13
2022-08-12T05:39:37.644Z,71.82
2022-08-12T05:42:15.359Z,71.56
2022-08-12T05:45:02.734Z,71.82
2022-08-12T05:47:53.697Z,72.21
2022-08-12T05:50:49.523Z,71.80
2022-08-12T05:53:25.607Z,71.24
2022-08-12T05:55:57.588Z,70.41
2022-08-12T05:58:28.319Z,69.68
2022-08-12T06:01:01.455Z,69.28
2022-08-12T06:03:56.198Z,68.50
2022-08-12T06:06:27.841Z,67.99
2022-08-12T06:09:06.211Z,66.39
2022-08-12T06:11:41.201Z,65.19
2022-08-12T06:14:44.019Z,64.86
2022-08-12T06:17:26.289Z,63.98
2022-08-12T06:20:26.069Z,62.71
2022-08-12T06:23:01.289Z,60.93
2022-08-12T06:25:52.855Z,59.15
2022-08-12T06:28:30.766Z,58.54
2022-08-12T06:31:25.821Z,57.81
2022-08-12T06:35:21.675Z,56.96
2022-08-12T06:36:55.078Z,55.34
2022-08-12T06:39:37.758Z,53.38
2022-08-12T06:42:33.349Z,51.26
2022-08-12T06:45:19.340Z,50.16
2022-08-12T06:47:54.394Z,49.62
2022-08-12T06:50:42.740Z,48.75
2022-08-12T06:53:20.175Z,47.68
2022-08-12T06:56:01.213Z,46.93
2022-08-12T06:58:35.351Z,46.30
2022-08-12T07:01:22.293Z,45.99
2022-08-12T07:04:45.612Z,45.05
2022-08-12T07:07:20.523Z,44.52
2022-08-12T07:10:07.438Z,45.01
2022-08-12T07:12:51.029Z,44.61
2022-08-12T07:15:32.915Z,43.40
2022-08-12T07:18:16.092Z,42.72
2022-08-12T07:21:05.633Z,42.73
2022-08-12T07:24:28.771Z,42.20
2022-08-12T07:27:29.629Z,42.25
2022-08-12T07:30:28.201Z,42.78
2022-08-12T07:33:27.376Z,43.31
2022-08-12T07:36:09.693Z,43.54
2022-08-12T07:38:59.426Z,42.40
2022-08-12T07:41:37.205Z,41.78
2022-08-12T07:44:19.095Z,42.30
2022-08-12T07:46:56.848Z,42.13
2022-08-12T07:49:30.045Z,41.34
2022-08-12T07:52:10.546Z,40.82
2022-08-12T07:54:52.502Z,41.12
2022-08-12T07:57:27.868Z,41.14
2022-08-12T08:00:09.902Z,41.48
2022-08-12T08:02:42.109Z,40.78
2022-08-12T08:05:46.820Z,40.60
2022-08-12T08:08:38.287Z,39.56
2022-08-12T08:11:28.700Z,39.73
2022-08-12T08:14:01.808Z,39.84
2022-08-12T08:16:52.371Z,39.08
2022-08-12T08:20:03.129Z,38.87
2022-08-12T08:22:43.216Z,38.32
2022-08-12T08:25:41.584Z,38.51
2022-08-12T08:28:26.008Z,38.14
2022-08-12T08:31:22.569Z,37.47
2022-08-12T08:34:33.553Z,37.06
2022-08-12T08:37:04.742Z,36.97
2022-08-12T08:39:42.522Z,36.21
2022-08-12T08:42:33.749Z,36.41
2022-08-12T08:45:13.111Z,36.47
2022-08-12T08:47:47.091Z,35.80
2022-08-12T08:50:27.048Z,35.28
2022-08-12T08:53:01.047Z,35.19
2022-08-12T08:56:04.202Z,34.61
2022-08-12T08:58:50.215Z,34.77
2022-08-12T09:01:26.524Z,35.01
2022-08-12T09:05:07.789Z,34.66
2022-08-12T09:07:17.343Z,34.56
2022-08-12T09:16:07.192Z,35.07
2022-08-12T09:18:41.152Z,34.83
2022-08-12T09:21:18.841Z,35.25
2022-08-12T09:24:06.000Z,34.84
2022-08-12T09:26:46.221Z,34.59
2022-08-12T09:30:08.912Z,34.82
2022-08-12T09:32:56.562Z,34.49
2022-08-12T09:35:21.970Z,34.47
2022-08-12T09:38:05.405Z,33.71
2022-08-12T09:42:34.537Z,33.83
2022-08-12T09:44:38.035Z,34.13
2022-08-12T09:47:14.208Z,34.11
2022-08-12T09:49:58.611Z,34.16
2022-08-12T09:52:33.053Z,33.88
2022-08-12T09:55:59.554Z,34.46
2022-08-12T09:58:58.319Z,35.21
2022-08-12T10:01:23.196Z,34.85
2022-08-12T10:04:02.914Z,34.45
2022-08-12T10:06:36.609Z,34.35
2022-08-12T10:09:28.939Z,34.78
2022-08-12T10:12:35.380Z,34.32
2022-08-12T10:16:00.655Z,35.06
2022-08-12T10:18:26.600Z,34.80
2022-08-12T10:21:13.707Z,34.13
2022-08-12T10:23:51.547Z,33.87
2022-08-12T10:26:45.098Z,35.33
2022-08-12T10:30:03.432Z,35.54
2022-08-12T10:32:43.739Z,35.28
2022-08-12T10:35:18.390Z,35.42
2022-08-12T10:38:35.028Z,35.68
2022-08-12T10:41:01.172Z,35.75
2022-08-12T10:43:54.224Z,35.91
2022-08-12T10:46:32.085Z,35.90
2022-08-12T10:49:06.661Z,35.83
2022-08-12T10:52:04.294Z,35.87
2022-08-12T10:54:49.409Z,36.39
2022-08-12T10:57:50.489Z,37.14
2022-08-12T11:00:33.843Z,38.12
2022-08-12T11:04:18.559Z,38.69
2022-08-12T11:07:07.394Z,38.37
2022-08-12T11:09:14.793Z,38.71
2022-08-12T11:12:34.714Z,38.93
2022-08-12T11:14:50.180Z,39.25
2022-08-12T11:17:42.881Z,39.61
2022-08-12T11:20:15.128Z,39.76
2022-08-12T11:22:57.889Z,39.44
2022-08-12T11:25:55.893Z,39.72
2022-08-12T11:28:33.874Z,39.90
2022-08-12T11:31:12.184Z,40.62
2022-08-12T11:34:05.100Z,40.64
2022-08-12T11:36:44.157Z,40.28
2022-08-12T11:42:32.199Z,40.50
2022-08-12T11:45:05.669Z,40.17
2022-08-12T11:47:44.899Z,40.08
2022-08-12T11:50:19.519Z,40.58
2022-08-12T11:52:56.758Z,41.01
2022-08-12T11:55:46.654Z,41.49
2022-08-12T11:59:41.074Z,41.73
2022-08-12T12:03:59.066Z,41.57
2022-08-12T12:06:33.842Z,42.14
2022-08-12T12:09:13.428Z,42.64
2022-08-12T12:11:48.877Z,42.60
2022-08-12T12:14:19.902Z,42.77
2022-08-12T12:17:09.198Z,42.76
2022-08-12T12:19:46.251Z,42.45
2022-08-12T12:22:23.470Z,42.22
2022-08-12T12:25:12.629Z,42.37
2022-08-12T12:28:05.041Z,42.72
2022-08-12T12:30:39.015Z,42.78
2022-08-12T12:33:46.175Z,42.69
2022-08-12T12:36:29.586Z,42.70
2022-08-12T12:39:06.539Z,42.90
2022-08-12T12:42:43.005Z,43.09
2022-08-12T12:44:41.898Z,42.96
2022-08-12T12:47:29.037Z,42.73
2022-08-12T12:49:59.407Z,42.49
2022-08-12T12:52:35.042Z,42.76
2022-08-12T12:55:12.127Z,42.40
2022-08-12T12:58:06.620Z,42.42
2022-08-12T13:01:04.529Z,42.50
2022-08-12T13:03:55.455Z,42.60
2022-08-12T13:06:31.128Z,42.35
2022-08-12T13:09:06.812Z,42.28
2022-08-12T13:11:47.593Z,41.96
2022-08-12T13:14:31.214Z,42.07
2022-08-12T13:17:06.082Z,41.93
2022-08-12T13:19:43.471Z,41.39
2022-08-12T13:22:23.526Z,41.61
2022-08-12T13:24:55.777Z,41.54
2022-08-12T13:27:50.902Z,41.37
2022-08-12T13:30:24.877Z,40.92
2022-08-12T13:32:58.998Z,40.66
2022-08-12T13:36:04.887Z,40.67
2022-08-12T13:38:54.393Z,40.65
2022-08-12T13:41:38.656Z,40.87
2022-08-12T13:44:14.571Z,40.75
2022-08-12T13:46:58.917Z,40.27
2022-08-12T13:49:53.891Z,40.15
2022-08-12T13:52:42.537Z,40.32
2022-08-12T13:55:23.178Z,40.10
2022-08-12T13:58:02.526Z,40.40
2022-08-12T14:01:10.116Z,40.24
2022-08-12T14:03:51.396Z,40.46
2022-08-12T14:06:26.046Z,40.30
2022-08-12T14:09:00.393Z,40.00
2022-08-12T14:11:51.324Z,40.01
2022-08-12T14:14:40.740Z,39.96
2022-08-12T14:17:13.969Z,39.86
2022-08-12T14:20:15.494Z,40.08
2022-08-12T14:22:51.420Z,40.23
2022-08-12T14:25:26.650Z,40.29
2022-08-12T14:28:13.575Z,40.69
2022-08-12T14:31:00.029Z,41.09
2022-08-12T14:34:04.856Z,40.67
2022-08-12T14:36:45.005Z,40.78
2022-08-12T14:39:33.822Z,40.73
2022-08-12T14:42:08.658Z,40.79
2022-08-12T14:44:59.525Z,40.85
2022-08-12T14:47:39.709Z,40.70
2022-08-12T14:50:57.466Z,40.87
2022-08-12T14:56:59.431Z,41.00
2022-08-12T14:59:24.159Z,41.36
2022-08-12T15:02:00.017Z,41.58
2022-08-12T15:04:32.182Z,41.97
2022-08-12T15:07:07.928Z,42.18
2022-08-12T15:10:04.865Z,42.75
2022-08-12T15:12:43.385Z,43.21
2022-08-12T15:15:37.192Z,43.74
2022-08-12T15:18:21.736Z,44.11
2022-08-12T15:21:01.158Z,44.03
2022-08-12T15:23:45.769Z,44.30
2022-08-12T15:26:36.640Z,44.60
2022-08-12T15:29:21.608Z,44.78
2022-08-12T15:32:16.017Z,45.07
2022-08-12T15:34:50.298Z,45.32
2022-08-12T15:38:09.369Z,45.46
2022-08-12T15:40:29.808Z,45.48
2022-08-12T15:43:08.653Z,45.58
2022-08-12T15:45:45.577Z,45.72
2022-08-12T15:48:20.407Z,45.93
2022-08-12T15:50:53.069Z,46.05
2022-08-12T15:53:42.743Z,45.95
2022-08-12T15:56:16.668Z,46.08
2022-08-12T15:58:47.903Z,46.01
2022-08-12T16:01:19.776Z,46.10
2022-08-12T16:04:00.289Z,46.12
2022-08-12T16:06:50.868Z,46.13
2022-08-12T16:09:55.749Z,46.37
2022-08-12T16:12:12.248Z,46.58
2022-08-12T16:14:49.600Z,46.57
2022-08-12T16:18:15.175Z,46.62
2022-08-12T16:20:35.095Z,46.80
2022-08-12T16:23:26.553Z,46.75
2022-08-12T16:26:05.550Z,46.79
2022-08-12T16:28:38.993Z,46.71
2022-08-12T16:31:23.471Z,46.79
2022-08-12T16:33:59.390Z,46.96
2022-08-12T16:36:30.269Z,47.12
2022-08-12T16:39:01.621Z,47.07
2022-08-12T16:41:39.509Z,47.17
2022-08-12T16:44:10.051Z,47.23
2022-08-12T16:46:42.787Z,47.37
2022-08-12T16:49:29.903Z,47.58
2022-08-12T16:52:18.790Z,47.70
2022-08-12T16:54:51.521Z,47.54
2022-08-12T16:57:35.138Z,47.40
2022-08-12T17:00:11.611Z,47.66
2022-08-12T17:02:54.824Z,47.73
2022-08-12T17:05:31.239Z,47.64
2022-08-12T17:08:55.821Z,47.84
2022-08-12T17:11:40.685Z,47.83
2022-08-12T17:14:12.668Z,47.76
2022-08-12T17:16:43.193Z,47.91
2022-08-12T17:19:17.150Z,47.76
2022-08-12T17:22:01.684Z,47.81
2022-08-12T17:24:54.679Z,47.93
2022-08-12T17:27:34.128Z,48.00
2022-08-12T17:30:15.739Z,48.40
2022-08-12T17:32:53.250Z,48.27
2022-08-12T17:35:37.349Z,48.28
2022-08-12T17:38:21.221Z,48.54
2022-08-12T17:40:51.235Z,48.70
2022-08-12T17:43:56.723Z,48.92
2022-08-12T17:46:33.921Z,48.96
2022-08-12T17:50:01.516Z,49.09
2022-08-12T17:52:33.101Z,49.39
2022-08-12T17:55:04.240Z,49.65
2022-08-12T17:57:41.889Z,49.99
2022-08-12T18:00:19.671Z,50.39
2022-08-12T18:02:51.322Z,50.61
2022-08-12T18:05:55.483Z,50.80
2022-08-12T18:08:31.300Z,50.92
2022-08-12T18:12:04.925Z,50.96
2022-08-12T18:14:27.977Z,51.21
2022-08-12T18:17:02.409Z,51.42
2022-08-12T18:20:06.047Z,51.67
2022-08-12T18:22:41.588Z,51.74
2022-08-12T18:26:14.938Z,52.29
2022-08-12T18:29:10.484Z,52.73
2022-08-12T18:32:32.121Z,52.88
2022-08-12T18:35:29.950Z,53.18
2022-08-12T18:38:51.331Z,53.51
2022-08-12T18:42:14.644Z,53.75
2022-08-12T18:46:13.226Z,54.15
2022-08-12T18:58:07.234Z,54.84
2022-08-12T19:00:25.280Z,55.08
2022-08-12T19:02:54.310Z,55.12
2022-08-12T19:05:53.219Z,55.13
2022-08-12T19:08:15.815Z,55.28
2022-08-12T19:10:49.973Z,55.40
2022-08-12T19:13:42.733Z,55.78
2022-08-12T19:16:12.782Z,56.16
2022-08-12T19:18:44.632Z,56.31
2022-08-12T19:21:16.335Z,56.44
2022-08-12T19:24:05.955Z,56.60
2022-08-12T19:26:36.590Z,56.83
2022-08-12T19:29:08.513Z,57.10
2022-08-12T19:31:58.284Z,57.21
2022-08-12T19:38:03.655Z,57.42
2022-08-12T19:40:51.936Z,57.28
2022-08-12T19:43:25.965Z,57.52
2022-08-12T19:46:17.914Z,57.60
2022-08-12T19:48:58.630Z,57.65
2022-08-12T19:51:38.531Z,57.58
2022-08-12T19:54:08.920Z,57.72
2022-08-12T19:56:44.247Z,57.67
2022-08-12T19:59:43.338Z,57.60
2022-08-12T20:02:32.781Z,57.74
2022-08-12T20:06:05.681Z,57.72
2022-08-12T20:07:59.315Z,58.06
2022-08-12T20:10:35.140Z,58.08
2022-08-12T20:13:18.673Z,58.18
2022-08-12T20:15:59.613Z,58.41
2022-08-12T20:18:52.978Z,58.54
2022-08-12T20:21:24.443Z,58.73
2022-08-12T20:24:00.790Z,58.86
2022-08-12T20:26:30.262Z,58.76
2022-08-12T20:29:04.372Z,58.97
2022-08-12T20:31:36.583Z,58.97
2022-08-12T20:34:07.111Z,59.01
2022-08-12T20:36:40.769Z,59.13
2022-08-12T20:39:34.182Z,59.17
2022-08-12T20:42:08.640Z,59.28
2022-08-12T20:44:42.191Z,59.66
2022-08-12T20:47:19.524Z,59.86
2022-08-12T20:49:55.939Z,59.75
2022-08-12T20:52:35.728Z,59.85
2022-08-12T20:55:15.573Z,59.92
2022-08-12T20:58:02.616Z,59.93
2022-08-12T21:00:33.816Z,60.12
2022-08-12T21:03:22.101Z,60.24
2022-08-12T21:06:13.816Z,60.44
2022-08-12T21:08:43.963Z,60.50
2022-08-12T21:11:12.740Z,60.76
2022-08-12T21:13:41.815Z,60.67
2022-08-12T21:16:11.540Z,60.78
2022-08-12T21:18:41.025Z,60.94
2022-08-12T21:21:23.953Z,61.03
2022-08-12T21:23:56.549Z,61.21
2022-08-12T21:26:28.252Z,61.51
2022-08-12T21:29:01.199Z,61.42
2022-08-12T21:32:39.554Z,61.59
2022-08-12T21:34:24.158Z,61.84
2022-08-12T21:37:26.515Z,61.91
2022-08-12T21:39:56.304Z,62.12
2022-08-12T21:42:28.115Z,62.23
2022-08-12T21:45:47.989Z,62.42
2022-08-12T21:47:47.333Z,62.59
2022-08-12T21:50:22.299Z,62.70
2022-08-12T21:52:58.107Z,62.89
2022-08-12T21:55:27.424Z,63.00
2022-08-12T21:58:10.791Z,62.90
2022-08-12T22:00:41.028Z,63.13
2022-08-12T22:04:04.065Z,63.21
2022-08-12T22:06:31.259Z,63.30
2022-08-12T22:09:16.968Z,63.35
2022-08-12T22:11:59.094Z,63.23
2022-08-12T22:14:29.490Z,63.24
2022-08-12T22:17:00.617Z,63.28
2022-08-12T22:19:34.965Z,63.38
2022-08-12T22:22:05.471Z,63.65
2022-08-12T22:24:35.119Z,63.88
2022-08-12T22:27:22.855Z,63.87
2022-08-12T22:30:16.502Z,63.88
2022-08-12T22:32:50.593Z,64.16
2022-08-12T22:35:47.354Z,64.24
2022-08-12T22:38:25.150Z,64.33
2022-08-12T22:41:06.483Z,64.47
2022-08-12T22:43:59.660Z,64.45
2022-08-12T22:46:37.332Z,64.43
2022-08-12T22:49:09.027Z,64.54
2022-08-12T22:52:00.629Z,64.80
2022-08-12T22:54:35.536Z,64.77
2022-08-12T22:57:12.115Z,64.89
2022-08-12T22:59:51.415Z,64.83
2022-08-12T23:02:28.838Z,64.84
2022-08-12T23:04:58.766Z,64.98
2022-08-12T23:07:27.596Z,64.98
2022-08-12T23:10:05.916Z,65.21
2022-08-12T23:12:53.193Z,65.22
2022-08-12T23:15:22.439Z,65.61
2022-08-12T23:17:51.228Z,65.64
2022-08-12T23:20:27.110Z,65.70
2022-08-12T23:23:03.072Z,66.01
2022-08-12T23:25:55.278Z,66.16
2022-08-12T23:28:43.181Z,66.45
2022-08-12T23:31:11.935Z,66.87
2022-08-12T23:34:01.409Z,67.42
2022-08-12T23:36:39.253Z,67.89
2022-08-12T23:40:13.345Z,68.65
2022-08-12T23:42:16.560Z,69.15
2022-08-12T23:44:52.397Z,69.67
2022-08-12T23:47:22.672Z,70.00
2022-08-12T23:49:57.486Z,70.23
2022-08-12T23:52:34.452Z,70.55
2022-08-12T23:55:23.368Z,70.85
2022-08-12T23:58:22.679Z,71.20
